College Estates, Maryland
Current Conditions -  °F | °C
As of 8:00 PM on Tuesday 27 Jan 2015 (Local Time) from KFDK Reporting Station
Clear Clear  
Wind Chill: 22°   Ceiling: Unl
Heat Index: 30°   Visibility: 10mi
Dew Point: 14°   Wind: 9mph
Humidity: 51%   Direction: 320°NW
Pressure: 29.93"   Gusts: NA
Location:  39.478°N, 77.4561°W
Report Text: KFDK 280100Z AUTO 32008KT 10SM CLR M01/M10 A2993 RMK AO2
Loading
Personal Weather Stations






























Interactive Weather Map New forecast layout! Learn more

10-Day Weather Forecast

Advertisements
Track Severe Weather on mobile